Clipper Mills, California
Current Conditions -  °F | °C
As of 9:20 AM on Saturday 25 Oct 2014 (Local Time) from KGOO Reporting Station
Overcast Overcast  
Wind Chill: 50°   Ceiling: 100
Heat Index: 50°   Visibility: 0.75mi
Dew Point: 48°   Wind: 10mph
Humidity: 94%   Direction: 250°WSW
Pressure: 30.05"   Gusts: NA
Location:  39.53°N, 121.16°W
Report Text: KGOO 251620Z AUTO 25009KT 3/4SM OVC001 10/09 A3005 RMK AO1 P0005
Loading
Personal Weather Stations






























Interactive Weather Map
Tropical Storm Tracking
New forecast layout! Learn more

10-Day Weather Forecast

Advertisements
Track Severe Weather on mobile